Time;durP1;ratioP1;P1;durP2;ratioP2;P2;SDS_P1;SDS_P2;PMS_P1;PMS_P2;Temp;Humidity;BMP_temperature;BMP_pressure;BME280_temperature;BME280_humidity;BME280_pressure;Samples;Min_cycle;Max_cycle;Signal;HPM_P1;HPM_P2
2022/07/13 00:02:15;;;;;;;0.50;0.50;;;;;;;23.49;nan;95551.00;5035807;28;20459;-69
2022/07/13 00:04:42;;;;;;;0.40;0.40;;;;;;;23.43;nan;95554.19;5036213;28;20444;-62
2022/07/13 00:07:09;;;;;;;0.53;0.53;;;;;;;23.39;nan;95545.22;5042681;28;20493;-68
2022/07/13 00:09:36;;;;;;;0.33;0.33;;;;;;;23.23;nan;95544.91;5019119;28;20431;-68
2022/07/13 00:12:03;;;;;;;0.20;0.20;;;;;;;23.12;nan;95544.47;5034027;28;20468;-68
2022/07/13 00:14:30;;;;;;;2.00;1.63;;;;;;;23.01;nan;95548.59;5028488;28;20458;-67
2022/07/13 00:16:57;;;;;;;0.30;0.30;;;;;;;23.17;nan;95544.31;5049291;28;20216;-65
2022/07/13 00:19:24;;;;;;;0.77;0.70;;;;;;;23.07;nan;95550.00;5045929;28;20817;-64
2022/07/13 00:21:52;;;;;;;0.30;0.30;;;;;;;23.10;nan;95533.31;5016258;28;20194;-67
2022/07/13 00:24:19;;;;;;;0.57;0.57;;;;;;;23.04;nan;95542.63;5015959;28;20190;-63
2022/07/13 00:26:46;;;;;;;0.40;0.40;;;;;;;22.94;nan;95539.47;5028212;28;20474;-70
2022/07/13 00:29:13;;;;;;;0.30;0.30;;;;;;;23.07;nan;95546.53;5028251;28;20474;-63
2022/07/13 00:31:41;;;;;;;0.43;0.43;;;;;;;22.91;nan;95556.94;5027542;28;20488;-64
2022/07/13 00:34:08;;;;;;;0.10;0.10;;;;;;;23.01;nan;95545.91;5029307;28;20869;-62
2022/07/13 00:36:37;;;;;;;0.20;0.20;;;;;;;22.85;nan;95552.06;5015755;28;20449;-66
2022/07/13 00:39:04;;;;;;;0.30;0.30;;;;;;;22.80;nan;95561.03;5040270;28;20436;-67
2022/07/13 00:41:31;;;;;;;0.20;0.20;;;;;;;22.68;nan;95547.53;5032529;28;20450;-63
2022/07/13 00:44:09;;;;;;;0.80;0.80;;;;;;;22.44;nan;95552.53;5045515;28;20529;-65
2022/07/13 00:46:37;;;;;;;0.20;0.20;;;;;;;21.99;nan;95559.22;5017601;28;20454;-64
2022/07/13 00:49:04;;;;;;;0.73;0.73;;;;;;;22.36;nan;95550.63;5044508;28;20444;-66
2022/07/13 00:51:31;;;;;;;0.10;0.10;;;;;;;22.32;nan;95548.91;5031206;28;20487;-62
2022/07/13 00:53:59;;;;;;;0.20;0.20;;;;;;;22.32;nan;95549.69;5023962;28;20442;-61
2022/07/13 00:56:27;;;;;;;0.33;0.30;;;;;;;21.99;nan;95551.22;5023850;28;20436;-66
2022/07/13 00:58:55;;;;;;;1.90;1.70;;;;;;;21.49;nan;95548.06;5051792;28;20492;-69
2022/07/13 01:01:22;;;;;;;0.20;0.20;;;;;;;21.68;nan;95542.44;5023921;28;20842;-65
2022/07/13 01:03:49;;;;;;;0.97;0.57;;;;;;;21.23;nan;95543.69;5038846;28;20201;-65
2022/07/13 01:06:17;;;;;;;0.30;0.30;;;;;;;21.65;nan;95551.09;5034088;28;20532;-63
2022/07/13 01:08:46;;;;;;;0.60;0.50;;;;;;;21.61;nan;95545.59;5029688;28;20471;-67
2022/07/13 01:11:13;;;;;;;0.40;0.40;;;;;;;21.69;nan;95552.03;5032971;28;20478;-64
2022/07/13 01:13:40;;;;;;;0.80;0.77;;;;;;;21.24;nan;95547.94;5042334;28;20439;-64
2022/07/13 01:16:28;;;;;;;0.20;0.20;;;;;;;20.75;nan;95549.66;5046204;28;20445;-64
2022/07/13 01:18:56;;;;;;;0.20;0.20;;;;;;;20.67;nan;95552.25;5050551;28;20533;-68
2022/07/13 01:21:24;;;;;;;0.67;0.53;;;;;;;21.03;nan;95551.13;5034146;28;20498;-65
2022/07/13 01:23:51;;;;;;;0.93;0.93;;;;;;;20.98;nan;95537.88;5041470;28;20435;-65
2022/07/13 01:26:18;;;;;;;0.10;0.10;;;;;;;21.44;nan;95550.06;5020075;28;20472;-66
2022/07/13 01:28:45;;;;;;;0.10;0.10;;;;;;;21.28;nan;95551.53;5027222;28;20984;-69
2022/07/13 01:31:12;;;;;;;0.40;0.40;;;;;;;21.38;nan;95548.63;5051524;28;20527;-65
2022/07/13 01:33:39;;;;;;;0.20;0.20;;;;;;;21.41;nan;95535.47;5024259;28;20462;-67
2022/07/13 01:36:06;;;;;;;0.30;0.30;;;;;;;21.24;nan;95535.38;5039033;28;20448;-65
2022/07/13 01:38:33;;;;;;;0.63;0.53;;;;;;;21.12;nan;95538.63;5049958;28;20447;-69
2022/07/13 01:41:02;;;;;;;0.50;0.50;;;;;;;21.26;nan;95535.88;5028629;28;20449;-67
2022/07/13 01:43:29;;;;;;;0.30;0.30;;;;;;;21.47;nan;95541.44;5041034;28;20574;-65
2022/07/13 01:45:56;;;;;;;0.53;0.53;;;;;;;21.44;nan;95539.41;5040337;28;20493;-64
2022/07/13 01:48:23;;;;;;;0.63;0.63;;;;;;;21.46;nan;95526.56;5047874;28;20996;-66
2022/07/13 01:50:50;;;;;;;0.20;0.20;;;;;;;21.65;nan;95537.75;5024717;28;20451;-64
2022/07/13 01:53:17;;;;;;;0.10;0.10;;;;;;;21.66;nan;95540.09;5023033;28;20448;-62
2022/07/13 01:55:44;;;;;;;0.50;0.50;;;;;;;21.45;nan;95532.97;5009857;28;20445;-64
2022/07/13 01:58:11;;;;;;;1.50;1.23;;;;;;;21.08;nan;95543.00;5026545;28;20992;-64
2022/07/13 02:00:38;;;;;;;0.10;0.10;;;;;;;20.83;nan;95530.28;5042841;28;20455;-64
2022/07/13 02:03:05;;;;;;;0.40;0.40;;;;;;;20.99;nan;95528.00;5017536;28;20449;-68
2022/07/13 02:05:32;;;;;;;0.33;0.33;;;;;;;21.12;nan;95533.31;5050235;28;20439;-66
2022/07/13 02:07:59;;;;;;;0.37;0.37;;;;;;;21.21;nan;95540.53;5034477;28;20979;-65
2022/07/13 02:10:36;;;;;;;0.30;0.30;;;;;;;21.43;nan;95548.47;5032152;28;20992;-67
2022/07/13 02:13:06;;;;;;;0.10;0.10;;;;;;;21.50;nan;95544.28;5044105;28;20866;-67
2022/07/13 02:15:34;;;;;;;0.20;0.20;;;;;;;21.37;nan;95547.06;5031144;28;20436;-64
2022/07/13 02:18:03;;;;;;;0.60;0.60;;;;;;;21.40;nan;95549.09;5032733;28;20589;-63
2022/07/13 02:20:32;;;;;;;0.10;0.10;;;;;;;21.33;nan;95546.09;5049383;28;20439;-63
2022/07/13 02:22:59;;;;;;;0.20;0.20;;;;;;;21.38;nan;95545.97;5050372;28;20596;-67
2022/07/13 02:25:26;;;;;;;0.67;0.57;;;;;;;21.37;nan;95544.41;5048993;28;20439;-65
2022/07/13 02:27:53;;;;;;;0.20;0.20;;;;;;;21.18;nan;95542.72;5049679;28;20442;-68
2022/07/13 02:30:23;;;;;;;0.30;0.30;;;;;;;20.88;nan;95548.00;5022343;28;20445;-64
2022/07/13 02:32:54;;;;;;;0.20;0.20;;;;;;;21.03;nan;95545.78;5038373;28;20482;-65
2022/07/13 02:35:21;;;;;;;0.67;0.60;;;;;;;21.11;nan;95547.69;5021814;28;20886;-67
2022/07/13 02:37:49;;;;;;;1.10;0.83;;;;;;;21.20;nan;95541.66;5037906;28;20451;-66
2022/07/13 02:40:16;;;;;;;4.13;0.97;;;;;;;21.27;nan;95549.97;5039980;28;20429;-67
2022/07/13 02:42:46;;;;;;;0.83;0.63;;;;;;;21.02;nan;95544.19;5033062;28;20446;-67
2022/07/13 02:45:13;;;;;;;0.40;0.37;;;;;;;20.93;nan;95539.88;5034511;28;20501;-65
2022/07/13 02:47:40;;;;;;;0.10;0.10;;;;;;;20.90;nan;95538.63;5039272;28;20783;-65
2022/07/13 02:50:10;;;;;;;0.10;0.10;;;;;;;20.83;nan;95532.94;5029339;28;20450;-64
2022/07/13 02:52:37;;;;;;;8.03;1.47;;;;;;;20.92;nan;95539.13;5027795;28;20476;-66
2022/07/13 02:55:05;;;;;;;0.20;0.20;;;;;;;20.91;nan;95536.75;5036500;28;20441;-70
2022/07/13 02:57:34;;;;;;;0.37;0.37;;;;;;;20.89;nan;95538.94;5028592;28;20486;-67
2022/07/13 03:00:05;;;;;;;0.47;0.47;;;;;;;20.75;nan;95549.66;5017964;28;20445;-68
2022/07/13 03:02:32;;;;;;;0.27;0.27;;;;;;;20.85;nan;95549.41;5029084;28;20455;-65
2022/07/13 03:04:59;;;;;;;0.20;0.20;;;;;;;20.77;nan;95536.00;5029719;28;20455;-63
2022/07/13 03:07:26;;;;;;;0.97;0.97;;;;;;;20.60;nan;95539.34;5047789;28;20999;-64
2022/07/13 03:09:54;;;;;;;2.30;2.10;;;;;;;20.87;nan;95547.22;5016299;28;20436;-66
2022/07/13 03:12:25;;;;;;;2.97;2.20;;;;;;;20.77;nan;95549.34;5041541;28;20515;-65
2022/07/13 03:14:52;;;;;;;1.47;1.37;;;;;;;20.94;nan;95552.91;5034418;28;20534;-66
2022/07/13 03:17:19;;;;;;;1.07;0.63;;;;;;;20.86;nan;95539.53;5037945;28;21005;-66
2022/07/13 03:19:47;;;;;;;0.73;0.73;;;;;;;20.64;nan;95542.19;5038533;28;20502;-66
2022/07/13 03:22:14;;;;;;;0.60;0.60;;;;;;;20.47;nan;95542.88;5028576;28;20439;-68
2022/07/13 03:24:42;;;;;;;0.30;0.30;;;;;;;20.49;nan;95546.00;5034416;28;20495;-65
2022/07/13 03:27:09;;;;;;;0.30;0.30;;;;;;;20.69;nan;95540.19;5048037;28;20506;-66
2022/07/13 03:29:36;;;;;;;0.40;0.40;;;;;;;20.75;nan;95544.31;5033435;28;20444;-69
2022/07/13 03:32:04;;;;;;;0.73;0.73;;;;;;;20.81;nan;95540.44;5033981;28;20473;-64
2022/07/13 03:34:31;;;;;;;0.20;0.20;;;;;;;18.92;nan;95544.84;5024676;28;20531;-64
2022/07/13 03:36:58;;;;;;;0.77;0.77;;;;;;;19.98;nan;95545.53;5033708;28;20429;-71
2022/07/13 03:39:26;;;;;;;0.10;0.10;;;;;;;20.33;nan;95542.09;5024506;28;20439;-67
2022/07/13 03:41:56;;;;;;;1.07;0.97;;;;;;;20.46;nan;95543.16;5046902;28;20962;-67
2022/07/13 03:44:23;;;;;;;0.40;0.40;;;;;;;20.09;nan;95522.91;5015300;28;20444;-67
2022/07/13 03:46:50;;;;;;;0.30;0.30;;;;;;;20.38;nan;95542.00;5027962;28;20450;-67
2022/07/13 03:49:17;;;;;;;0.57;0.57;;;;;;;20.44;nan;95554.09;5019655;28;20548;-66
2022/07/13 03:51:46;;;;;;;0.50;0.50;;;;;;;20.17;nan;95548.84;5047650;28;20490;-69
2022/07/13 03:54:14;;;;;;;0.10;0.10;;;;;;;20.34;nan;95549.03;5020019;28;20822;-63
2022/07/13 03:56:41;;;;;;;0.70;0.60;;;;;;;20.35;nan;95550.59;5019801;28;20509;-67
2022/07/13 03:59:09;;;;;;;0.63;0.63;;;;;;;20.45;nan;95554.91;5035567;28;20437;-69
2022/07/13 04:01:37;;;;;;;0.20;0.20;;;;;;;20.47;nan;95564.16;5011582;28;21065;-68
2022/07/13 04:04:05;;;;;;;0.47;0.40;;;;;;;20.33;nan;95562.63;5038331;28;20813;-64
2022/07/13 04:06:32;;;;;;;0.10;0.10;;;;;;;20.64;nan;95561.63;5036452;28;20443;-63
2022/07/13 04:09:01;;;;;;;0.80;0.80;;;;;;;20.79;nan;95550.63;5028905;28;20448;-70
2022/07/13 04:11:28;;;;;;;0.43;0.43;;;;;;;20.65;nan;95557.88;5040570;28;21028;-68
2022/07/13 04:13:55;;;;;;;0.10;0.10;;;;;;;20.59;nan;95559.09;5028910;28;20443;-70
2022/07/13 04:16:22;;;;;;;0.10;0.10;;;;;;;20.54;nan;95558.41;5031469;28;20444;-66
2022/07/13 04:18:49;;;;;;;33.03;15.50;;;;;;;20.46;nan;95562.56;5041551;28;20446;-67
2022/07/13 04:21:17;;;;;;;0.73;0.73;;;;;;;20.35;nan;95565.75;5023410;28;20440;-63
2022/07/13 04:23:44;;;;;;;0.30;0.30;;;;;;;20.00;nan;95575.25;5033361;28;20445;-66
2022/07/13 04:26:12;;;;;;;0.67;0.67;;;;;;;20.43;nan;95568.50;5025442;28;20844;-65
2022/07/13 04:28:39;;;;;;;0.50;0.50;;;;;;;20.42;nan;95572.25;5037414;28;20439;-66
2022/07/13 04:31:09;;;;;;;0.97;0.97;;;;;;;20.43;nan;95573.03;5051820;28;20555;-68
2022/07/13 04:33:38;;;;;;;0.30;0.30;;;;;;;20.41;nan;95569.88;5017937;28;20475;-66
2022/07/13 04:36:09;;;;;;;0.20;0.20;;;;;;;20.78;nan;95564.25;5043343;28;20564;-68
2022/07/13 04:38:38;;;;;;;1.47;0.93;;;;;;;20.56;nan;95578.34;5044191;28;20436;-60
2022/07/13 04:41:05;;;;;;;0.70;0.70;;;;;;;20.74;nan;95574.72;5042005;28;20945;-67
2022/07/13 04:43:34;;;;;;;4.63;2.33;;;;;;;20.64;nan;95580.25;5018640;28;20590;-68
2022/07/13 04:46:04;;;;;;;0.77;0.37;;;;;;;20.53;nan;95573.59;5022141;28;20930;-69
2022/07/13 04:48:32;;;;;;;0.80;0.80;;;;;;;20.34;nan;95562.31;5011517;28;20970;-69
2022/07/13 04:50:59;;;;;;;7.17;4.53;;;;;;;20.69;nan;95564.16;5027255;28;20580;-71
2022/07/13 04:53:27;;;;;;;2.93;2.73;;;;;;;20.82;nan;95571.31;5050616;28;20470;-65
2022/07/13 04:55:55;;;;;;;0.50;0.50;;;;;;;20.53;nan;95560.28;5020721;28;20900;-67
2022/07/13 04:58:22;;;;;;;0.70;0.70;;;;;;;21.21;nan;95556.53;5030201;28;20543;-66
2022/07/13 05:00:49;;;;;;;0.50;0.50;;;;;;;20.83;nan;95567.56;5034977;28;20449;-65
2022/07/13 05:03:38;;;;;;;0.80;0.43;;;;;;;20.66;nan;95564.78;5012398;28;20469;-70
2022/07/13 05:06:05;;;;;;;0.40;0.40;;;;;;;20.55;nan;95560.78;5011418;28;20826;-65
2022/07/13 05:08:32;;;;;;;0.40;0.37;;;;;;;20.41;nan;95564.56;5026654;28;20436;-68
2022/07/13 05:11:00;;;;;;;0.40;0.40;;;;;;;20.53;nan;95562.94;5027874;28;20966;-68
2022/07/13 05:13:27;;;;;;;0.50;0.50;;;;;;;20.53;nan;95568.28;5028734;28;20496;-67
2022/07/13 05:15:57;;;;;;;0.70;0.70;;;;;;;20.56;nan;95570.34;5027867;28;21061;-65
2022/07/13 05:18:25;;;;;;;0.63;0.63;;;;;;;21.18;nan;95552.63;5036210;28;20440;-67
2022/07/13 05:20:54;;;;;;;1.70;0.87;;;;;;;21.27;nan;95563.31;5051204;28;20450;-64
2022/07/13 05:23:21;;;;;;;0.20;0.20;;;;;;;21.56;nan;95563.59;5052099;28;20511;-63
2022/07/13 05:25:49;;;;;;;13.30;1.23;;;;;;;21.03;nan;95571.66;5026527;28;20838;-67
2022/07/13 05:28:16;;;;;;;4.13;3.73;;;;;;;22.16;nan;95572.59;5023418;28;21356;-65
2022/07/13 05:30:43;;;;;;;1.67;1.57;;;;;;;21.46;nan;95563.88;5030464;28;20467;-71
2022/07/13 05:33:10;;;;;;;0.40;0.40;;;;;;;22.12;nan;95563.63;5024872;28;20486;-66
2022/07/13 05:35:38;;;;;;;1.53;1.10;;;;;;;21.89;nan;95562.97;5034500;28;20449;-70
2022/07/13 05:38:06;;;;;;;0.43;0.43;;;;;;;22.27;nan;95562.41;5020244;28;20456;-73
2022/07/13 05:40:33;;;;;;;0.50;0.50;;;;;;;22.13;nan;95546.53;5022355;28;20448;-65
2022/07/13 05:43:00;;;;;;;0.73;0.73;;;;;;;21.80;nan;95575.50;5017477;28;20452;-66
2022/07/13 05:45:27;;;;;;;0.17;0.17;;;;;;;21.85;nan;95571.91;5014132;28;20456;-68
2022/07/13 05:47:53;;;;;;;0.50;0.50;;;;;;;22.36;nan;95576.56;5024075;28;20428;-62
2022/07/13 05:50:20;;;;;;;1.60;1.33;;;;;;;21.65;nan;95564.41;5017997;28;20436;-68
2022/07/13 05:52:48;;;;;;;0.67;0.67;;;;;;;22.40;nan;95567.63;5026147;28;20518;-66
2022/07/13 05:55:20;;;;;;;0.47;0.47;;;;;;;22.45;nan;95554.09;5017235;28;20450;-69
2022/07/13 05:57:47;;;;;;;0.20;0.20;;;;;;;22.71;nan;95560.28;5018058;28;20433;-69
2022/07/13 06:00:14;;;;;;;0.93;0.80;;;;;;;22.46;nan;95555.69;5023615;28;20433;-65
2022/07/13 06:02:42;;;;;;;0.20;0.20;;;;;;;22.78;nan;95562.44;5022223;28;20444;-66
2022/07/13 06:05:10;;;;;;;0.37;0.37;;;;;;;23.33;nan;95558.00;5019946;28;20433;-65
2022/07/13 06:07:37;;;;;;;0.10;0.10;;;;;;;22.63;nan;95561.03;5022246;28;20342;-64
2022/07/13 06:10:05;;;;;;;0.13;0.13;;;;;;;23.44;nan;95548.50;5021256;28;20445;-66
2022/07/13 06:12:33;;;;;;;0.20;0.20;;;;;;;23.27;nan;95548.53;5025828;28;20221;-64
2022/07/13 06:14:59;;;;;;;0.30;0.30;;;;;;;23.51;nan;95548.00;5017687;28;20197;-66
2022/07/13 06:17:26;;;;;;;4.70;0.97;;;;;;;23.80;nan;95550.72;5022982;28;20243;-67
2022/07/13 06:19:53;;;;;;;0.47;0.47;;;;;;;23.39;nan;95550.56;5026134;28;20196;-68
2022/07/13 06:22:20;;;;;;;0.30;0.30;;;;;;;23.53;nan;95551.16;5013141;28;20556;-66
2022/07/13 06:24:47;;;;;;;0.30;0.30;;;;;;;23.39;nan;95545.22;5024814;28;20258;-63
2022/07/13 06:27:14;;;;;;;0.20;0.20;;;;;;;23.76;nan;95541.75;5016504;28;20233;-65
2022/07/13 06:29:41;;;;;;;0.73;0.67;;;;;;;23.66;nan;95531.41;5023713;28;20656;-68
2022/07/13 06:32:08;;;;;;;18.77;0.87;;;;;;;23.69;nan;95536.13;5020079;28;20208;-70
2022/07/13 06:34:36;;;;;;;6.50;1.90;;;;;;;23.90;nan;95534.28;5020373;28;20193;-66
2022/07/13 06:37:03;;;;;;;0.40;0.40;;;;;;;24.05;nan;95531.06;5020148;28;20198;-68
2022/07/13 06:39:50;;;;;;;0.10;0.10;;;;;;;24.26;nan;95536.44;5027000;28;20644;-66
2022/07/13 06:42:17;;;;;;;0.60;0.60;;;;;;;24.41;nan;95531.31;5014804;28;20195;-66
2022/07/13 06:44:47;;;;;;;0.20;0.20;;;;;;;24.36;nan;95526.13;5022802;28;20270;-67
2022/07/13 06:47:14;;;;;;;0.40;0.40;;;;;;;24.22;nan;95520.25;5024843;28;20258;-63
2022/07/13 06:49:41;;;;;;;0.30;0.30;;;;;;;24.20;nan;95517.13;5027684;28;20549;-67
2022/07/13 06:52:08;;;;;;;0.10;0.10;;;;;;;23.92;nan;95521.38;5014228;28;20225;-68
2022/07/13 06:54:35;;;;;;;0.47;0.40;;;;;;;24.49;nan;95519.72;5025819;28;20189;-67
2022/07/13 06:57:02;;;;;;;0.20;0.20;;;;;;;24.39;nan;95514.78;5009711;28;20202;-65
2022/07/13 06:59:29;;;;;;;0.43;0.43;;;;;;;24.92;nan;95514.81;5032885;28;20526;-66
2022/07/13 07:01:56;;;;;;;0.10;0.10;;;;;;;24.87;nan;95515.00;5017040;28;20189;-66
2022/07/13 07:04:23;;;;;;;0.20;0.20;;;;;;;24.83;nan;95514.13;5039077;28;20933;-62
2022/07/13 07:06:49;;;;;;;0.23;0.23;;;;;;;24.78;nan;95516.97;5018796;28;20201;-68
2022/07/13 07:09:16;;;;;;;1.10;0.97;;;;;;;24.74;nan;95521.44;5016641;28;20590;-69
2022/07/13 07:11:44;;;;;;;0.10;0.10;;;;;;;24.51;nan;95522.88;5049341;28;20202;-66
2022/07/13 07:14:12;;;;;;;0.10;0.10;;;;;;;24.31;nan;95518.28;5020603;28;20268;-68
2022/07/13 07:16:39;;;;;;;0.20;0.20;;;;;;;;;;5014935;28;20199;-62
2022/07/13 07:19:05;;;;;;;0.20;0.20;;;;;;;24.24;nan;95520.72;5040868;28;20192;-67
2022/07/13 07:21:50;;;;;;;0.63;0.57;;;;;;;23.77;nan;95520.03;5023349;28;20196;-69
2022/07/13 07:24:17;;;;;;;0.20;0.20;;;;;;;24.42;nan;95516.78;5036569;28;20204;-68
2022/07/13 07:26:44;;;;;;;0.33;0.33;;;;;;;24.83;nan;95530.19;5023721;28;20688;-65
2022/07/13 07:29:11;;;;;;;0.10;0.10;;;;;;;24.78;nan;95533.06;5020386;28;20197;-68
2022/07/13 07:31:38;;;;;;;0.20;0.20;;;;;;;25.37;nan;95519.34;5042874;28;20197;-71
2022/07/13 07:34:05;;;;;;;0.30;0.30;;;;;;;25.68;nan;95516.97;5038786;28;20876;-64
2022/07/13 07:36:31;;;;;;;0.10;0.10;;;;;;;25.83;nan;95529.72;5034384;28;20203;-66
2022/07/13 07:38:59;;;;;;;0.57;0.57;;;;;;;25.90;nan;95522.66;5032707;28;20664;-67
2022/07/13 07:41:25;;;;;;;0.10;0.10;;;;;;;25.78;nan;95527.25;5008601;28;20229;-67
2022/07/13 07:43:52;;;;;;;2.70;0.70;;;;;;;25.98;nan;95521.00;5009045;28;20680;-68
2022/07/13 07:46:19;;;;;;;0.20;0.20;;;;;;;26.37;nan;95517.59;5033607;28;20200;-67
2022/07/13 07:48:46;;;;;;;2.37;0.73;;;;;;;26.04;nan;95520.44;5037348;28;20308;-67
2022/07/13 07:51:13;;;;;;;1.03;0.57;;;;;;;26.07;nan;95519.00;5044104;28;20197;-70
2022/07/13 07:53:40;;;;;;;0.10;0.10;;;;;;;25.80;nan;95514.28;5018197;28;20209;-64
2022/07/13 07:56:07;;;;;;;0.40;0.40;;;;;;;26.46;nan;95507.47;5015435;28;20197;-65
2022/07/13 07:58:34;;;;;;;3.23;0.53;;;;;;;26.61;nan;95517.50;5047568;28;20197;-68
2022/07/13 08:01:01;;;;;;;0.10;0.10;;;;;;;26.11;nan;95509.16;5035083;28;20227;-70
2022/07/13 08:03:28;;;;;;;0.93;0.50;;;;;;;26.38;nan;95491.50;5046332;28;20204;-70
2022/07/13 08:05:57;;;;;;;0.20;0.20;;;;;;;26.13;nan;95508.81;5023805;28;20570;-66
2022/07/13 08:08:24;;;;;;;0.40;0.40;;;;;;;25.01;nan;95520.09;5029425;28;20205;-65
2022/07/13 08:10:52;;;;;;;0.30;0.30;;;;;;;25.87;nan;95515.31;5015429;28;20200;-68
2022/07/13 08:13:19;;;;;;;0.20;0.20;;;;;;;25.66;nan;95516.50;5055147;28;20306;-67
2022/07/13 08:15:47;;;;;;;0.30;0.30;;;;;;;26.08;nan;95520.56;5054727;28;20219;-69
2022/07/13 08:18:14;;;;;;;0.50;0.50;;;;;;;26.02;nan;95519.19;5035492;28;20258;-63
2022/07/13 08:21:01;;;;;;;0.30;0.30;;;;;;;26.94;nan;95510.00;5020478;28;20571;-66
2022/07/13 08:26:15;;;;;;;1.40;0.77;;;;;;;26.55;nan;95512.72;5039072;28;20221;-67
2022/07/13 08:28:43;;;;;;;0.20;0.20;;;;;;;26.54;nan;95505.78;5042253;28;20582;-66
2022/07/13 08:31:11;;;;;;;0.17;0.17;;;;;;;26.78;nan;95506.50;5054601;28;20647;-67
2022/07/13 08:39:12;;;;;;;0.10;0.10;;;;;;;27.04;nan;95514.88;5045455;28;20201;-65
2022/07/13 08:41:45;;;;;;;0.10;0.10;;;;;;;27.44;nan;95508.63;5050111;28;20200;-68
2022/07/13 08:44:12;;;;;;;0.20;0.20;;;;;;;27.55;nan;95501.59;5044069;28;20196;-66
2022/07/13 08:46:40;;;;;;;0.20;0.20;;;;;;;27.13;nan;95508.56;5053015;28;20204;-68
2022/07/13 08:49:08;;;;;;;0.27;0.27;;;;;;;27.47;nan;95499.84;5042527;28;20715;-66
2022/07/13 08:51:40;;;;;;;0.20;0.20;;;;;;;26.70;nan;95510.13;5028643;28;20197;-70
2022/07/13 08:54:07;;;;;;;0.10;0.10;;;;;;;26.99;nan;95514.34;5028641;28;20596;-65
2022/07/13 08:56:35;;;;;;;0.10;0.10;;;;;;;26.75;nan;95515.25;5024555;28;20252;-68
2022/07/13 08:59:03;;;;;;;0.20;0.20;;;;;;;27.18;nan;95511.00;5043075;28;20199;-68
2022/07/13 09:01:31;;;;;;;0.10;0.10;;;;;;;28.05;nan;95508.97;5022437;28;20248;-71
2022/07/13 09:04:00;;;;;;;0.30;0.30;;;;;;;27.13;nan;95501.28;5044479;28;20683;-65
2022/07/13 09:06:38;;;;;;;0.20;0.20;;;;;;;28.22;nan;95503.97;5031519;28;21109;-70
2022/07/13 09:09:07;;;;;;;0.10;0.10;;;;;;;28.23;nan;95504.75;5012169;28;20735;-73
2022/07/13 09:11:34;;;;;;;0.87;0.47;;;;;;;28.28;nan;95502.56;5012100;28;20201;-69
2022/07/13 09:14:02;;;;;;;1.60;1.13;;;;;;;28.43;nan;95498.25;5024611;28;20715;-66
2022/07/13 09:16:38;;;;;;;0.30;0.30;;;;;;;28.46;nan;95497.53;5016988;28;20238;-68
2022/07/13 09:19:05;;;;;;;0.10;0.10;;;;;;;27.96;nan;95492.97;5019147;28;20205;-67
2022/07/13 09:21:32;;;;;;;0.20;0.20;;;;;;;28.29;nan;95487.94;5047811;28;20192;-66
2022/07/13 09:24:03;;;;;;;0.17;0.13;;;;;;;27.45;nan;95497.50;5050913;28;20193;-66
2022/07/13 09:26:44;;;;;;;0.30;0.30;;;;;;;28.44;nan;95494.41;5047111;28;20236;-67
2022/07/13 09:29:12;;;;;;;0.20;0.20;;;;;;;28.53;nan;95479.63;5031075;28;20193;-69
2022/07/13 09:31:54;;;;;;;0.10;0.10;;;;;;;29.02;nan;95487.06;5026814;28;20188;-66
2022/07/13 09:34:42;;;;;;;0.30;0.30;;;;;;;29.04;nan;95484.81;5022761;28;20243;-68
2022/07/13 09:37:13;;;;;;;2.17;1.13;;;;;;;28.22;nan;95493.19;5024764;28;20247;-65
2022/07/13 09:40:06;;;;;;;0.27;0.27;;;;;;;28.34;nan;95490.34;5050745;28;20761;-68
2022/07/13 09:42:41;;;;;;;1.40;0.70;;;;;;;27.81;nan;95482.97;5031062;28;20296;-66
2022/07/13 09:48:00;;;;;;;0.40;0.37;;;;;;;28.51;nan;95473.75;5042627;28;20200;-69
2022/07/13 09:50:55;;;;;;;1.17;0.33;;;;;;;29.19;nan;95470.47;5036338;28;20197;-67
2022/07/13 09:53:33;;;;;;;0.20;0.20;;;;;;;28.54;nan;95478.47;5021748;28;20252;-64
2022/07/13 09:56:02;;;;;;;0.33;0.33;;;;;;;28.91;nan;95471.50;5019808;28;20225;-72
2022/07/13 09:58:32;;;;;;;0.30;0.30;;;;;;;28.75;nan;95478.91;5013756;28;20236;-71
2022/07/13 10:01:02;;;;;;;0.20;0.20;;;;;;;28.91;nan;95471.50;5020646;28;20229;-70
2022/07/13 10:03:30;;;;;;;0.30;0.30;;;;;;;29.35;nan;95471.13;5029436;28;20198;-72
2022/07/13 10:05:59;;;;;;;0.10;0.10;;;;;;;29.57;nan;95470.34;5032529;28;20714;-72
2022/07/13 10:08:30;;;;;;;2.03;1.23;;;;;;;29.52;nan;95470.66;5011101;28;20343;-73
2022/07/13 10:10:57;;;;;;;0.20;0.20;;;;;;;29.50;nan;95464.81;5010156;28;20205;-68
2022/07/13 10:13:24;;;;;;;0.30;0.30;;;;;;;29.11;nan;95463.34;5018466;28;20634;-71
2022/07/13 10:15:53;;;;;;;3.77;0.77;;;;;;;29.39;nan;95471.97;5044228;28;20200;-71
2022/07/13 10:18:28;;;;;;;0.60;0.60;;;;;;;29.19;nan;95470.47;5024436;28;20198;-74
2022/07/13 10:21:13;;;;;;;0.30;0.30;;;;;;;28.96;nan;95463.09;5010692;28;20246;-76
2022/07/13 10:23:41;;;;;;;0.20;0.20;;;;;;;29.05;nan;95462.84;5027002;28;20196;-70
2022/07/13 10:26:21;;;;;;;0.10;0.10;;;;;;;29.10;nan;95461.78;5050171;28;20236;-67
2022/07/13 10:29:09;;;;;;;1.20;0.43;;;;;;;28.29;nan;95446.72;5041104;28;20208;-71
2022/07/13 10:31:38;;;;;;;0.10;0.10;;;;;;;28.21;nan;95459.25;5046853;28;20199;-68
2022/07/13 10:34:08;;;;;;;0.20;0.20;;;;;;;28.79;nan;95455.47;5030531;28;20229;-69
2022/07/13 10:36:56;;;;;;;0.30;0.30;;;;;;;29.07;nan;95454.44;5014453;28;20291;-66
2022/07/13 10:39:25;;;;;;;0.17;0.17;;;;;;;29.19;nan;95438.06;5049931;28;20204;-68
2022/07/13 10:42:01;;;;;;;0.60;0.60;;;;;;;29.57;nan;95443.31;5044672;28;20197;-71
2022/07/13 10:44:38;;;;;;;0.20;0.20;;;;;;;30.02;nan;95448.66;5029525;28;20257;-68
2022/07/13 10:47:08;;;;;;;0.20;0.20;;;;;;;29.63;nan;95439.19;5020210;28;20226;-69
2022/07/13 10:49:42;;;;;;;0.20;0.20;;;;;;;30.06;nan;95448.69;5049456;28;20200;-72
2022/07/13 10:52:25;;;;;;;0.20;0.20;;;;;;;29.99;nan;95448.59;5021861;28;20299;-73
2022/07/13 10:55:04;;;;;;;1.67;0.90;;;;;;;30.54;nan;95431.56;5022283;28;20264;-71
2022/07/13 10:57:32;;;;;;;0.30;0.30;;;;;;;30.45;nan;95442.69;5028622;28;20204;-68
2022/07/13 11:00:28;;;;;;;0.23;0.23;;;;;;;30.20;nan;95438.84;5033205;28;20200;-70
2022/07/13 11:03:04;;;;;;;0.20;0.20;;;;;;;31.10;nan;95436.81;5029114;28;20209;-73
2022/07/13 11:05:36;;;;;;;0.93;0.93;;;;;;;29.94;nan;95431.53;5034533;28;20200;-70
2022/07/13 11:08:15;;;;;;;0.30;0.30;;;;;;;29.92;nan;95427.69;5038123;28;20630;-71
2022/07/13 11:10:42;;;;;;;0.23;0.23;;;;;;;29.68;nan;95438.88;5009486;28;20244;-71
2022/07/13 11:13:13;;;;;;;0.10;0.10;;;;;;;27.79;nan;95436.78;5009340;28;20193;-65
2022/07/13 11:15:42;;;;;;;0.20;0.20;;;;;;;28.50;nan;95433.69;5009414;28;20210;-70
2022/07/13 11:18:21;;;;;;;0.13;0.13;;;;;;;28.58;nan;95430.78;5045768;28;20203;-68
2022/07/13 11:21:16;;;;;;;0.20;0.20;;;;;;;29.75;nan;95428.97;5037013;28;20197;-75
2022/07/13 11:26:37;;;;;;;0.33;0.33;;;;;;;29.21;nan;95425.00;5014936;28;20224;-74
2022/07/13 11:29:32;;;;;;;0.20;0.20;;;;;;;28.57;nan;95429.25;5019014;28;20202;-71
2022/07/13 11:32:01;;;;;;;0.30;0.30;;;;;;;28.89;nan;95419.81;5008962;28;20194;-70
2022/07/13 11:34:29;;;;;;;0.20;0.20;;;;;;;29.94;nan;95414.56;5021744;28;20232;-69
2022/07/13 11:37:04;;;;;;;0.37;0.37;;;;;;;30.11;nan;95400.50;5042589;28;20310;-71
2022/07/13 11:39:32;;;;;;;0.20;0.20;;;;;;;29.94;nan;95425.38;5028823;28;20196;-64
2022/07/13 11:42:00;;;;;;;0.10;0.10;;;;;;;29.90;nan;95419.94;5023685;28;20195;-70
2022/07/13 11:44:30;;;;;;;0.40;0.40;;;;;;;30.78;nan;95404.78;5008742;28;20204;-68
2022/07/13 11:47:07;;;;;;;0.20;0.20;;;;;;;30.77;nan;95407.84;5040110;28;20197;-68
2022/07/13 11:49:46;;;;;;;0.40;0.40;;;;;;;30.04;nan;95416.63;5028900;28;20287;-66
2022/07/13 11:52:23;;;;;;;1.53;1.43;;;;;;;30.30;nan;95405.81;5033212;28;20188;-70
2022/07/13 11:54:57;;;;;;;0.20;0.20;;;;;;;30.30;nan;95405.00;5023314;28;20212;-70
2022/07/13 11:57:25;;;;;;;0.10;0.10;;;;;;;31.08;nan;95402.00;5017233;28;20698;-70
2022/07/13 11:59:52;;;;;;;0.20;0.20;;;;;;;30.68;nan;95402.75;5015773;28;20185;-63
2022/07/13 12:02:19;;;;;;;0.70;0.70;;;;;;;30.71;nan;95410.13;5034658;28;20292;-65
2022/07/13 12:04:48;;;;;;;0.77;0.73;;;;;;;30.53;nan;95398.34;5022003;28;20237;-66
2022/07/13 12:07:15;;;;;;;2.37;1.37;;;;;;;31.31;nan;95393.69;5048360;28;20201;-68
2022/07/13 12:09:57;;;;;;;0.30;0.30;;;;;;;30.11;nan;95400.50;5015959;28;20201;-70
2022/07/13 12:12:38;;;;;;;0.20;0.20;;;;;;;30.23;nan;95394.09;5042153;28;20231;-70
2022/07/13 12:15:06;;;;;;;0.20;0.20;;;;;;;30.58;nan;95399.94;5023118;28;20295;-72
2022/07/13 12:17:50;;;;;;;0.20;0.20;;;;;;;29.82;nan;95395.88;5033387;28;20560;-66